Terminal Aerodrome Forecast
Issued by NWS

Current Version | Previous Version | Text Only | Print | Product List | Glossary On
Versions: 1 2 3 4 5 6 7 8 9 10 11 12 13 14 15
376
FTUS41 KBTV 110537
TAFMSS
TAF
KMSS 110537Z 1106/1206 00000KT P6SM SCT070
     FM111600 VRB03KT P6SM BKN050
     FM111800 18004KT P6SM VCSH BKN045
     FM112100 08006KT P6SM VCSH SCT015 OVC025
     FM120000 10004KT 1 1/2SM -SN BR SCT012 OVC020
     FM120500 10008KT 1SM -SN BR OVC010=

USA.gov is the U.S. government's official web portal to all federal, state and local government web resources and services.